sensor_id;sensor_type;location;lat;lon;timestamp;P1;durP1;ratioP1;P2;durP2;ratioP2
12770;SDS011;6449;47.666;9.160;2023-08-06T00:03:13;3.00;;;2.42;;
12770;SDS011;6449;47.666;9.160;2023-08-06T00:08:07;2.58;;;2.38;;
12770;SDS011;6449;47.666;9.160;2023-08-06T00:13:01;2.75;;;2.55;;
12770;SDS011;6449;47.666;9.160;2023-08-06T00:17:55;2.97;;;2.60;;
12770;SDS011;6449;47.666;9.160;2023-08-06T00:22:48;2.40;;;2.13;;
12770;SDS011;6449;47.666;9.160;2023-08-06T00:27:42;2.50;;;2.17;;
12770;SDS011;6449;47.666;9.160;2023-08-06T00:32:36;3.53;;;2.17;;
12770;SDS011;6449;47.666;9.160;2023-08-06T00:37:30;2.30;;;2.10;;
12770;SDS011;6449;47.666;9.160;2023-08-06T00:42:23;2.25;;;1.80;;
12770;SDS011;6449;47.666;9.160;2023-08-06T00:47:16;2.45;;;2.25;;
12770;SDS011;6449;47.666;9.160;2023-08-06T00:52:11;3.25;;;2.22;;
12770;SDS011;6449;47.666;9.160;2023-08-06T00:57:05;2.33;;;2.13;;
12770;SDS011;6449;47.666;9.160;2023-08-06T01:02:01;2.45;;;2.25;;
12770;SDS011;6449;47.666;9.160;2023-08-06T01:06:57;3.60;;;2.50;;
12770;SDS011;6449;47.666;9.160;2023-08-06T01:12:08;2.20;;;2.00;;
12770;SDS011;6449;47.666;9.160;2023-08-06T01:17:15;2.75;;;2.20;;
12770;SDS011;6449;47.666;9.160;2023-08-06T01:22:10;2.42;;;2.17;;
12770;SDS011;6449;47.666;9.160;2023-08-06T01:27:05;2.45;;;1.92;;
12770;SDS011;6449;47.666;9.160;2023-08-06T01:32:05;2.53;;;2.10;;
12770;SDS011;6449;47.666;9.160;2023-08-06T01:37:04;2.28;;;2.08;;
12770;SDS011;6449;47.666;9.160;2023-08-06T01:41:59;2.53;;;1.98;;
12770;SDS011;6449;47.666;9.160;2023-08-06T01:46:53;2.25;;;1.73;;
12770;SDS011;6449;47.666;9.160;2023-08-06T01:51:46;3.55;;;1.80;;
12770;SDS011;6449;47.666;9.160;2023-08-06T01:56:40;2.35;;;2.08;;
12770;SDS011;6449;47.666;9.160;2023-08-06T02:01:35;3.35;;;1.92;;
12770;SDS011;6449;47.666;9.160;2023-08-06T02:06:28;2.10;;;1.90;;
12770;SDS011;6449;47.666;9.160;2023-08-06T02:11:21;6.03;;;2.28;;
12770;SDS011;6449;47.666;9.160;2023-08-06T02:16:15;1.90;;;1.80;;
12770;SDS011;6449;47.666;9.160;2023-08-06T02:21:09;1.67;;;1.52;;
12770;SDS011;6449;47.666;9.160;2023-08-06T02:26:03;2.88;;;1.77;;
12770;SDS011;6449;47.666;9.160;2023-08-06T02:30:57;1.60;;;1.50;;
12770;SDS011;6449;47.666;9.160;2023-08-06T02:35:51;1.67;;;1.58;;
12770;SDS011;6449;47.666;9.160;2023-08-06T02:40:53;4.07;;;1.35;;
12770;SDS011;6449;47.666;9.160;2023-08-06T02:45:46;2.20;;;1.77;;
12770;SDS011;6449;47.666;9.160;2023-08-06T02:50:40;2.45;;;1.70;;
12770;SDS011;6449;47.666;9.160;2023-08-06T02:55:34;2.45;;;1.73;;
12770;SDS011;6449;47.666;9.160;2023-08-06T03:00:29;1.83;;;1.60;;
12770;SDS011;6449;47.666;9.160;2023-08-06T03:05:22;1.55;;;1.45;;
12770;SDS011;6449;47.666;9.160;2023-08-06T03:10:15;2.38;;;1.85;;
12770;SDS011;6449;47.666;9.160;2023-08-06T03:15:09;3.20;;;2.40;;
12770;SDS011;6449;47.666;9.160;2023-08-06T03:20:05;2.75;;;1.85;;
12770;SDS011;6449;47.666;9.160;2023-08-06T03:25:02;1.60;;;1.50;;
12770;SDS011;6449;47.666;9.160;2023-08-06T03:29:57;2.88;;;1.30;;
12770;SDS011;6449;47.666;9.160;2023-08-06T03:34:52;1.90;;;1.27;;
12770;SDS011;6449;47.666;9.160;2023-08-06T03:39:47;1.23;;;1.13;;
12770;SDS011;6449;47.666;9.160;2023-08-06T03:44:40;1.58;;;1.48;;
12770;SDS011;6449;47.666;9.160;2023-08-06T03:49:33;2.13;;;1.15;;
12770;SDS011;6449;47.666;9.160;2023-08-06T03:54:26;2.28;;;1.23;;
12770;SDS011;6449;47.666;9.160;2023-08-06T03:59:22;2.38;;;1.10;;
12770;SDS011;6449;47.666;9.160;2023-08-06T04:04:16;1.20;;;1.10;;
12770;SDS011;6449;47.666;9.160;2023-08-06T04:09:09;1.35;;;1.25;;
12770;SDS011;6449;47.666;9.160;2023-08-06T04:14:02;2.22;;;1.42;;
12770;SDS011;6449;47.666;9.160;2023-08-06T04:18:57;3.60;;;1.75;;
12770;SDS011;6449;47.666;9.160;2023-08-06T04:23:51;3.10;;;1.45;;
12770;SDS011;6449;47.666;9.160;2023-08-06T04:28:44;1.23;;;1.13;;
12770;SDS011;6449;47.666;9.160;2023-08-06T04:33:37;2.28;;;1.30;;
12770;SDS011;6449;47.666;9.160;2023-08-06T04:38:32;1.15;;;1.05;;
12770;SDS011;6449;47.666;9.160;2023-08-06T04:43:25;1.88;;;1.13;;
12770;SDS011;6449;47.666;9.160;2023-08-06T04:48:19;2.10;;;1.30;;
12770;SDS011;6449;47.666;9.160;2023-08-06T04:53:12;4.13;;;1.10;;
12770;SDS011;6449;47.666;9.160;2023-08-06T04:58:08;1.58;;;1.00;;
12770;SDS011;6449;47.666;9.160;2023-08-06T05:03:02;1.50;;;0.85;;
12770;SDS011;6449;47.666;9.160;2023-08-06T05:07:56;2.03;;;0.70;;
12770;SDS011;6449;47.666;9.160;2023-08-06T05:12:50;0.40;;;0.40;;
12770;SDS011;6449;47.666;9.160;2023-08-06T05:17:45;0.63;;;0.47;;
12770;SDS011;6449;47.666;9.160;2023-08-06T05:22:38;0.75;;;0.40;;
12770;SDS011;6449;47.666;9.160;2023-08-06T05:27:31;1.90;;;0.50;;
12770;SDS011;6449;47.666;9.160;2023-08-06T05:32:25;1.15;;;0.55;;
12770;SDS011;6449;47.666;9.160;2023-08-06T05:37:19;4.53;;;0.60;;
12770;SDS011;6449;47.666;9.160;2023-08-06T05:42:13;2.20;;;0.40;;
12770;SDS011;6449;47.666;9.160;2023-08-06T05:47:06;1.10;;;0.67;;
12770;SDS011;6449;47.666;9.160;2023-08-06T05:51:59;1.93;;;0.87;;
12770;SDS011;6449;47.666;9.160;2023-08-06T05:56:55;0.10;;;0.10;;
12770;SDS011;6449;47.666;9.160;2023-08-06T06:01:49;4.27;;;0.50;;
12770;SDS011;6449;47.666;9.160;2023-08-06T06:06:44;0.40;;;0.22;;
12770;SDS011;6449;47.666;9.160;2023-08-06T06:11:37;0.83;;;0.47;;
12770;SDS011;6449;47.666;9.160;2023-08-06T06:16:32;3.67;;;0.50;;
12770;SDS011;6449;47.666;9.160;2023-08-06T06:21:26;0.50;;;0.28;;
12770;SDS011;6449;47.666;9.160;2023-08-06T06:26:21;0.40;;;0.40;;
12770;SDS011;6449;47.666;9.160;2023-08-06T06:31:14;0.30;;;0.30;;
12770;SDS011;6449;47.666;9.160;2023-08-06T06:36:09;2.88;;;0.75;;
12770;SDS011;6449;47.666;9.160;2023-08-06T06:41:03;1.02;;;0.50;;
12770;SDS011;6449;47.666;9.160;2023-08-06T06:45:56;0.40;;;0.40;;
12770;SDS011;6449;47.666;9.160;2023-08-06T06:50:50;1.05;;;0.47;;
12770;SDS011;6449;47.666;9.160;2023-08-06T06:55:45;2.45;;;0.40;;
12770;SDS011;6449;47.666;9.160;2023-08-06T07:00:40;1.33;;;0.30;;
12770;SDS011;6449;47.666;9.160;2023-08-06T07:05:34;0.22;;;0.22;;
12770;SDS011;6449;47.666;9.160;2023-08-06T07:10:27;0.45;;;0.10;;
12770;SDS011;6449;47.666;9.160;2023-08-06T07:15:22;0.90;;;0.40;;
12770;SDS011;6449;47.666;9.160;2023-08-06T07:20:15;0.68;;;0.47;;
12770;SDS011;6449;47.666;9.160;2023-08-06T07:25:09;0.65;;;0.40;;
12770;SDS011;6449;47.666;9.160;2023-08-06T07:30:02;0.25;;;0.25;;
12770;SDS011;6449;47.666;9.160;2023-08-06T07:34:59;0.35;;;0.20;;
12770;SDS011;6449;47.666;9.160;2023-08-06T07:39:54;2.95;;;0.35;;
12770;SDS011;6449;47.666;9.160;2023-08-06T07:44:49;0.45;;;0.20;;
12770;SDS011;6449;47.666;9.160;2023-08-06T07:49:45;0.80;;;0.32;;
12770;SDS011;6449;47.666;9.160;2023-08-06T07:54:40;0.30;;;0.20;;
12770;SDS011;6449;47.666;9.160;2023-08-06T07:59:33;2.05;;;0.22;;
12770;SDS011;6449;47.666;9.160;2023-08-06T08:04:26;1.35;;;0.45;;
12770;SDS011;6449;47.666;9.160;2023-08-06T08:09:20;0.60;;;0.17;;
12770;SDS011;6449;47.666;9.160;2023-08-06T08:14:14;0.40;;;0.20;;
12770;SDS011;6449;47.666;9.160;2023-08-06T08:19:08;0.98;;;0.40;;
12770;SDS011;6449;47.666;9.160;2023-08-06T08:24:04;0.70;;;0.32;;
12770;SDS011;6449;47.666;9.160;2023-08-06T08:28:57;0.57;;;0.28;;
12770;SDS011;6449;47.666;9.160;2023-08-06T08:33:52;0.88;;;0.30;;
12770;SDS011;6449;47.666;9.160;2023-08-06T08:38:50;1.50;;;0.30;;
12770;SDS011;6449;47.666;9.160;2023-08-06T08:43:45;1.63;;;0.30;;
12770;SDS011;6449;47.666;9.160;2023-08-06T08:48:42;0.30;;;0.30;;
12770;SDS011;6449;47.666;9.160;2023-08-06T08:53:37;1.23;;;0.40;;
12770;SDS011;6449;47.666;9.160;2023-08-06T08:58:34;1.37;;;0.37;;
12770;SDS011;6449;47.666;9.160;2023-08-06T09:03:30;0.30;;;0.30;;
12770;SDS011;6449;47.666;9.160;2023-08-06T09:08:27;0.20;;;0.20;;
12770;SDS011;6449;47.666;9.160;2023-08-06T09:13:29;0.85;;;0.28;;
12770;SDS011;6449;47.666;9.160;2023-08-06T09:18:25;0.30;;;0.20;;
12770;SDS011;6449;47.666;9.160;2023-08-06T09:23:20;0.40;;;0.10;;
12770;SDS011;6449;47.666;9.160;2023-08-06T09:28:19;0.10;;;0.10;;
12770;SDS011;6449;47.666;9.160;2023-08-06T09:33:14;0.77;;;0.40;;
12770;SDS011;6449;47.666;9.160;2023-08-06T09:38:11;0.25;;;0.20;;
12770;SDS011;6449;47.666;9.160;2023-08-06T09:43:05;0.50;;;0.20;;
12770;SDS011;6449;47.666;9.160;2023-08-06T09:47:59;1.95;;;0.20;;
12770;SDS011;6449;47.666;9.160;2023-08-06T09:52:58;0.67;;;0.30;;
12770;SDS011;6449;47.666;9.160;2023-08-06T09:57:52;0.40;;;0.35;;
12770;SDS011;6449;47.666;9.160;2023-08-06T10:02:46;0.43;;;0.20;;
12770;SDS011;6449;47.666;9.160;2023-08-06T10:07:41;1.45;;;0.20;;
12770;SDS011;6449;47.666;9.160;2023-08-06T10:12:39;0.22;;;0.22;;
12770;SDS011;6449;47.666;9.160;2023-08-06T10:17:38;0.17;;;0.17;;
12770;SDS011;6449;47.666;9.160;2023-08-06T10:22:42;0.17;;;0.10;;
12770;SDS011;6449;47.666;9.160;2023-08-06T10:27:41;0.10;;;0.10;;
12770;SDS011;6449;47.666;9.160;2023-08-06T10:32:48;0.20;;;0.05;;
12770;SDS011;6449;47.666;9.160;2023-08-06T10:37:44;0.40;;;0.10;;
12770;SDS011;6449;47.666;9.160;2023-08-06T10:42:38;0.10;;;0.10;;
12770;SDS011;6449;47.666;9.160;2023-08-06T10:47:37;0.30;;;0.20;;
12770;SDS011;6449;47.666;9.160;2023-08-06T10:52:34;1.45;;;0.30;;
12770;SDS011;6449;47.666;9.160;2023-08-06T10:57:28;0.32;;;0.10;;
12770;SDS011;6449;47.666;9.160;2023-08-06T11:02:22;0.00;;;0.00;;
12770;SDS011;6449;47.666;9.160;2023-08-06T11:07:16;1.10;;;0.10;;
12770;SDS011;6449;47.666;9.160;2023-08-06T11:12:12;0.08;;;0.08;;
12770;SDS011;6449;47.666;9.160;2023-08-06T11:17:11;0.20;;;0.20;;
12770;SDS011;6449;47.666;9.160;2023-08-06T11:22:06;0.10;;;0.10;;
12770;SDS011;6449;47.666;9.160;2023-08-06T11:26:59;1.85;;;0.10;;
12770;SDS011;6449;47.666;9.160;2023-08-06T11:31:53;0.00;;;0.00;;
12770;SDS011;6449;47.666;9.160;2023-08-06T11:36:56;0.20;;;0.13;;
12770;SDS011;6449;47.666;9.160;2023-08-06T11:41:51;0.80;;;0.10;;
12770;SDS011;6449;47.666;9.160;2023-08-06T11:46:52;0.00;;;0.00;;
12770;SDS011;6449;47.666;9.160;2023-08-06T11:51:47;0.00;;;0.00;;
12770;SDS011;6449;47.666;9.160;2023-08-06T11:56:41;1.20;;;0.00;;
12770;SDS011;6449;47.666;9.160;2023-08-06T12:01:36;0.20;;;0.10;;
12770;SDS011;6449;47.666;9.160;2023-08-06T12:06:31;0.32;;;0.10;;
12770;SDS011;6449;47.666;9.160;2023-08-06T12:11:35;0.55;;;0.10;;
12770;SDS011;6449;47.666;9.160;2023-08-06T12:16:28;0.13;;;0.13;;
12770;SDS011;6449;47.666;9.160;2023-08-06T12:21:23;0.10;;;0.10;;
12770;SDS011;6449;47.666;9.160;2023-08-06T12:26:17;0.10;;;0.10;;
12770;SDS011;6449;47.666;9.160;2023-08-06T12:31:10;0.20;;;0.08;;
12770;SDS011;6449;47.666;9.160;2023-08-06T12:36:04;0.43;;;0.00;;
12770;SDS011;6449;47.666;9.160;2023-08-06T12:40:58;0.20;;;0.10;;
12770;SDS011;6449;47.666;9.160;2023-08-06T12:45:52;1.67;;;0.20;;
12770;SDS011;6449;47.666;9.160;2023-08-06T12:50:45;0.10;;;0.10;;
12770;SDS011;6449;47.666;9.160;2023-08-06T12:55:41;0.10;;;0.10;;
12770;SDS011;6449;47.666;9.160;2023-08-06T13:00:36;1.08;;;0.10;;
12770;SDS011;6449;47.666;9.160;2023-08-06T13:05:29;0.93;;;0.17;;
12770;SDS011;6449;47.666;9.160;2023-08-06T13:10:22;0.43;;;0.40;;
12770;SDS011;6449;47.666;9.160;2023-08-06T13:15:17;3.47;;;0.20;;
12770;SDS011;6449;47.666;9.160;2023-08-06T13:20:13;0.73;;;0.20;;
12770;SDS011;6449;47.666;9.160;2023-08-06T13:25:10;1.65;;;0.20;;
12770;SDS011;6449;47.666;9.160;2023-08-06T13:30:06;1.08;;;0.40;;
12770;SDS011;6449;47.666;9.160;2023-08-06T13:35:01;0.25;;;0.25;;
12770;SDS011;6449;47.666;9.160;2023-08-06T13:39:59;1.20;;;0.60;;
12770;SDS011;6449;47.666;9.160;2023-08-06T13:44:57;0.30;;;0.30;;
12770;SDS011;6449;47.666;9.160;2023-08-06T13:49:55;3.47;;;0.35;;
12770;SDS011;6449;47.666;9.160;2023-08-06T13:54:48;2.40;;;0.40;;
12770;SDS011;6449;47.666;9.160;2023-08-06T13:59:43;0.17;;;0.17;;
12770;SDS011;6449;47.666;9.160;2023-08-06T14:04:36;0.30;;;0.30;;
12770;SDS011;6449;47.666;9.160;2023-08-06T14:09:31;0.25;;;0.25;;
12770;SDS011;6449;47.666;9.160;2023-08-06T14:14:25;0.40;;;0.30;;
12770;SDS011;6449;47.666;9.160;2023-08-06T14:19:20;0.70;;;0.57;;
12770;SDS011;6449;47.666;9.160;2023-08-06T14:24:16;0.40;;;0.40;;
12770;SDS011;6449;47.666;9.160;2023-08-06T14:29:09;0.40;;;0.40;;
12770;SDS011;6449;47.666;9.160;2023-08-06T14:34:04;0.82;;;0.60;;
12770;SDS011;6449;47.666;9.160;2023-08-06T14:39:01;4.10;;;0.65;;
12770;SDS011;6449;47.666;9.160;2023-08-06T14:43:54;0.50;;;0.50;;
12770;SDS011;6449;47.666;9.160;2023-08-06T14:48:48;0.50;;;0.50;;
12770;SDS011;6449;47.666;9.160;2023-08-06T14:53:41;0.50;;;0.50;;
12770;SDS011;6449;47.666;9.160;2023-08-06T14:58:36;0.63;;;0.40;;
12770;SDS011;6449;47.666;9.160;2023-08-06T15:03:31;1.08;;;0.60;;
12770;SDS011;6449;47.666;9.160;2023-08-06T15:08:27;1.27;;;0.70;;
12770;SDS011;6449;47.666;9.160;2023-08-06T15:13:21;1.00;;;0.65;;
12770;SDS011;6449;47.666;9.160;2023-08-06T15:18:15;0.68;;;0.55;;
12770;SDS011;6449;47.666;9.160;2023-08-06T15:23:10;0.57;;;0.57;;
12770;SDS011;6449;47.666;9.160;2023-08-06T15:28:03;1.13;;;0.57;;
12770;SDS011;6449;47.666;9.160;2023-08-06T15:32:58;3.90;;;0.75;;
12770;SDS011;6449;47.666;9.160;2023-08-06T15:37:53;2.17;;;0.57;;
12770;SDS011;6449;47.666;9.160;2023-08-06T15:42:47;0.60;;;0.60;;
12770;SDS011;6449;47.666;9.160;2023-08-06T15:53:10;2.50;;;0.70;;
12770;SDS011;6449;47.666;9.160;2023-08-06T15:58:04;0.98;;;0.60;;
12770;SDS011;6449;47.666;9.160;2023-08-06T16:02:57;0.60;;;0.60;;
12770;SDS011;6449;47.666;9.160;2023-08-06T16:07:51;0.65;;;0.63;;
12770;SDS011;6449;47.666;9.160;2023-08-06T16:12:46;1.85;;;0.88;;
12770;SDS011;6449;47.666;9.160;2023-08-06T16:17:39;1.13;;;0.77;;
12770;SDS011;6449;47.666;9.160;2023-08-06T16:22:32;1.80;;;0.80;;
12770;SDS011;6449;47.666;9.160;2023-08-06T16:27:26;2.00;;;0.93;;
12770;SDS011;6449;47.666;9.160;2023-08-06T16:32:20;1.95;;;0.75;;
12770;SDS011;6449;47.666;9.160;2023-08-06T16:37:14;0.85;;;0.70;;
12770;SDS011;6449;47.666;9.160;2023-08-06T16:42:07;0.73;;;0.73;;
12770;SDS011;6449;47.666;9.160;2023-08-06T16:47:00;5.88;;;0.85;;
12770;SDS011;6449;47.666;9.160;2023-08-06T16:51:56;1.52;;;0.65;;
12770;SDS011;6449;47.666;9.160;2023-08-06T16:56:49;1.35;;;1.05;;
12770;SDS011;6449;47.666;9.160;2023-08-06T17:01:43;1.38;;;0.80;;
12770;SDS011;6449;47.666;9.160;2023-08-06T17:06:37;1.33;;;1.02;;
12770;SDS011;6449;47.666;9.160;2023-08-06T17:11:31;0.88;;;0.77;;
12770;SDS011;6449;47.666;9.160;2023-08-06T17:16:25;0.95;;;0.95;;
12770;SDS011;6449;47.666;9.160;2023-08-06T17:21:18;1.25;;;0.80;;
12770;SDS011;6449;47.666;9.160;2023-08-06T17:26:11;1.77;;;0.63;;
12770;SDS011;6449;47.666;9.160;2023-08-06T17:31:06;0.80;;;0.80;;
12770;SDS011;6449;47.666;9.160;2023-08-06T17:36:00;1.83;;;0.93;;
12770;SDS011;6449;47.666;9.160;2023-08-06T17:40:53;0.75;;;0.60;;
12770;SDS011;6449;47.666;9.160;2023-08-06T17:45:48;1.30;;;0.90;;
12770;SDS011;6449;47.666;9.160;2023-08-06T17:50:43;0.82;;;0.77;;
12770;SDS011;6449;47.666;9.160;2023-08-06T17:55:38;1.58;;;0.95;;
12770;SDS011;6449;47.666;9.160;2023-08-06T18:00:31;1.65;;;0.95;;
12770;SDS011;6449;47.666;9.160;2023-08-06T18:05:25;0.73;;;0.73;;
12770;SDS011;6449;47.666;9.160;2023-08-06T18:10:23;1.15;;;0.73;;
12770;SDS011;6449;47.666;9.160;2023-08-06T18:15:17;1.60;;;0.95;;
12770;SDS011;6449;47.666;9.160;2023-08-06T18:20:10;1.50;;;0.80;;
12770;SDS011;6449;47.666;9.160;2023-08-06T18:25:04;2.15;;;0.90;;
12770;SDS011;6449;47.666;9.160;2023-08-06T18:30:01;2.17;;;1.20;;
12770;SDS011;6449;47.666;9.160;2023-08-06T18:34:55;2.00;;;1.17;;
12770;SDS011;6449;47.666;9.160;2023-08-06T18:39:48;1.10;;;1.00;;
12770;SDS011;6449;47.666;9.160;2023-08-06T18:44:42;1.17;;;0.90;;
12770;SDS011;6449;47.666;9.160;2023-08-06T18:49:37;2.10;;;0.95;;
12770;SDS011;6449;47.666;9.160;2023-08-06T18:54:32;3.30;;;1.20;;
12770;SDS011;6449;47.666;9.160;2023-08-06T18:59:28;1.50;;;1.00;;
12770;SDS011;6449;47.666;9.160;2023-08-06T19:04:22;1.67;;;1.00;;
12770;SDS011;6449;47.666;9.160;2023-08-06T19:09:20;1.15;;;0.98;;
12770;SDS011;6449;47.666;9.160;2023-08-06T19:14:13;2.42;;;1.08;;
12770;SDS011;6449;47.666;9.160;2023-08-06T19:19:08;2.17;;;1.05;;
12770;SDS011;6449;47.666;9.160;2023-08-06T19:24:01;1.85;;;0.80;;
12770;SDS011;6449;47.666;9.160;2023-08-06T19:28:56;1.60;;;1.00;;
12770;SDS011;6449;47.666;9.160;2023-08-06T19:33:50;1.27;;;1.00;;
12770;SDS011;6449;47.666;9.160;2023-08-06T19:38:43;1.48;;;1.10;;
12770;SDS011;6449;47.666;9.160;2023-08-06T19:43:37;1.83;;;1.13;;
12770;SDS011;6449;47.666;9.160;2023-08-06T19:48:33;2.80;;;1.25;;
12770;SDS011;6449;47.666;9.160;2023-08-06T19:53:27;1.60;;;1.23;;
12770;SDS011;6449;47.666;9.160;2023-08-06T19:58:25;1.67;;;0.90;;
12770;SDS011;6449;47.666;9.160;2023-08-06T20:03:19;1.17;;;0.90;;
12770;SDS011;6449;47.666;9.160;2023-08-06T20:08:15;1.20;;;1.10;;
12770;SDS011;6449;47.666;9.160;2023-08-06T20:13:08;2.05;;;1.30;;
12770;SDS011;6449;47.666;9.160;2023-08-06T20:18:01;2.10;;;1.48;;
12770;SDS011;6449;47.666;9.160;2023-08-06T20:22:55;2.67;;;1.52;;
12770;SDS011;6449;47.666;9.160;2023-08-06T20:27:52;1.10;;;1.00;;
12770;SDS011;6449;47.666;9.160;2023-08-06T20:32:46;1.23;;;1.10;;
12770;SDS011;6449;47.666;9.160;2023-08-06T20:37:39;1.10;;;1.00;;
12770;SDS011;6449;47.666;9.160;2023-08-06T20:42:34;3.50;;;1.20;;
12770;SDS011;6449;47.666;9.160;2023-08-06T20:47:29;1.10;;;1.00;;
12770;SDS011;6449;47.666;9.160;2023-08-06T20:52:30;4.32;;;1.40;;
12770;SDS011;6449;47.666;9.160;2023-08-06T20:57:24;2.28;;;1.20;;
12770;SDS011;6449;47.666;9.160;2023-08-06T21:02:17;1.20;;;1.02;;
12770;SDS011;6449;47.666;9.160;2023-08-06T21:07:14;1.50;;;1.10;;
12770;SDS011;6449;47.666;9.160;2023-08-06T21:12:08;2.10;;;1.00;;
12770;SDS011;6449;47.666;9.160;2023-08-06T21:17:01;1.35;;;1.00;;
12770;SDS011;6449;47.666;9.160;2023-08-06T21:21:55;1.77;;;1.10;;
12770;SDS011;6449;47.666;9.160;2023-08-06T21:26:49;1.63;;;1.00;;
12770;SDS011;6449;47.666;9.160;2023-08-06T21:31:43;1.47;;;1.20;;
12770;SDS011;6449;47.666;9.160;2023-08-06T21:36:36;1.60;;;1.20;;
12770;SDS011;6449;47.666;9.160;2023-08-06T21:41:29;1.58;;;1.00;;
12770;SDS011;6449;47.666;9.160;2023-08-06T21:46:24;1.40;;;1.02;;
12770;SDS011;6449;47.666;9.160;2023-08-06T21:51:18;1.60;;;1.10;;
12770;SDS011;6449;47.666;9.160;2023-08-06T21:56:13;1.15;;;1.05;;
12770;SDS011;6449;47.666;9.160;2023-08-06T22:01:09;2.47;;;1.20;;
12770;SDS011;6449;47.666;9.160;2023-08-06T22:06:05;1.25;;;0.90;;
12770;SDS011;6449;47.666;9.160;2023-08-06T22:10:59;1.30;;;1.13;;
12770;SDS011;6449;47.666;9.160;2023-08-06T22:15:54;1.13;;;1.00;;
12770;SDS011;6449;47.666;9.160;2023-08-06T22:20:48;1.50;;;1.13;;
12770;SDS011;6449;47.666;9.160;2023-08-06T22:25:44;1.10;;;1.00;;
12770;SDS011;6449;47.666;9.160;2023-08-06T22:30:37;2.03;;;1.10;;
12770;SDS011;6449;47.666;9.160;2023-08-06T22:35:31;2.10;;;1.30;;
12770;SDS011;6449;47.666;9.160;2023-08-06T22:40:25;1.40;;;1.00;;
12770;SDS011;6449;47.666;9.160;2023-08-06T22:45:19;2.50;;;1.30;;
12770;SDS011;6449;47.666;9.160;2023-08-06T22:50:13;1.67;;;1.30;;
12770;SDS011;6449;47.666;9.160;2023-08-06T22:55:07;1.48;;;1.00;;
12770;SDS011;6449;47.666;9.160;2023-08-06T23:00:14;1.10;;;1.00;;
12770;SDS011;6449;47.666;9.160;2023-08-06T23:05:10;1.20;;;1.10;;
12770;SDS011;6449;47.666;9.160;2023-08-06T23:10:03;2.30;;;1.33;;
12770;SDS011;6449;47.666;9.160;2023-08-06T23:14:58;1.60;;;1.10;;
12770;SDS011;6449;47.666;9.160;2023-08-06T23:19:51;1.13;;;1.00;;
12770;SDS011;6449;47.666;9.160;2023-08-06T23:24:48;2.23;;;1.00;;
12770;SDS011;6449;47.666;9.160;2023-08-06T23:29:42;1.20;;;0.90;;
12770;SDS011;6449;47.666;9.160;2023-08-06T23:34:35;2.17;;;1.17;;
12770;SDS011;6449;47.666;9.160;2023-08-06T23:39:44;2.37;;;1.03;;
12770;SDS011;6449;47.666;9.160;2023-08-06T23:44:39;1.83;;;1.20;;
12770;SDS011;6449;47.666;9.160;2023-08-06T23:49:32;1.50;;;1.20;;
12770;SDS011;6449;47.666;9.160;2023-08-06T23:54:25;1.20;;;1.10;;
12770;SDS011;6449;47.666;9.160;2023-08-06T23:59:19;2.13;;;1.20;;
